Princeton, Texas
Current Conditions -  °F | °C
As of 2:53 PM on Friday 24 Oct 2014 (Local Time) from KTKI Reporting Station
Clear Clear  
Wind Chill: 80°   Ceiling: Unl
Heat Index: 81°   Visibility: 10mi
Dew Point: 59°   Wind: 13mph
Humidity: 48%   Direction: 210°SSW
Pressure: 30.08"   Gusts: NA
Location:  33.18°N, 96.5°W
Report Text: KTKI 241953Z 21011KT 10SM CLR 27/15 A3008 RMK AO2 SLP187 T02670150
Loading
Personal Weather Stations






























Interactive Weather Map
Tropical Storm Tracking
New forecast layout! Learn more

10-Day Weather Forecast

Advertisements
Track Severe Weather on mobile